sensor_id;sensor_type;location;lat;lon;timestamp;P1;durP1;ratioP1;P2;durP2;ratioP2
22435;SDS011;11385;50.822;4.324;2023-04-03T00:01:34;8.38;;;5.12;;
22435;SDS011;11385;50.822;4.324;2023-04-03T00:04:03;10.75;;;5.92;;
22435;SDS011;11385;50.822;4.324;2023-04-03T00:06:31;11.18;;;6.42;;
22435;SDS011;11385;50.822;4.324;2023-04-03T00:08:59;11.83;;;6.55;;
22435;SDS011;11385;50.822;4.324;2023-04-03T00:11:26;11.70;;;6.00;;
22435;SDS011;11385;50.822;4.324;2023-04-03T00:13:53;10.55;;;5.22;;
22435;SDS011;11385;50.822;4.324;2023-04-03T00:16:20;10.23;;;5.67;;
22435;SDS011;11385;50.822;4.324;2023-04-03T00:18:47;9.73;;;6.00;;
22435;SDS011;11385;50.822;4.324;2023-04-03T00:21:13;10.20;;;5.45;;
22435;SDS011;11385;50.822;4.324;2023-04-03T00:23:41;9.93;;;5.90;;
22435;SDS011;11385;50.822;4.324;2023-04-03T00:26:08;8.05;;;5.90;;
22435;SDS011;11385;50.822;4.324;2023-04-03T00:28:35;9.68;;;6.00;;
22435;SDS011;11385;50.822;4.324;2023-04-03T00:31:01;11.35;;;5.37;;
22435;SDS011;11385;50.822;4.324;2023-04-03T00:33:29;8.83;;;5.80;;
22435;SDS011;11385;50.822;4.324;2023-04-03T00:35:55;10.68;;;5.72;;
22435;SDS011;11385;50.822;4.324;2023-04-03T00:38:22;9.15;;;5.22;;
22435;SDS011;11385;50.822;4.324;2023-04-03T00:40:49;10.48;;;5.62;;
22435;SDS011;11385;50.822;4.324;2023-04-03T00:43:18;8.48;;;5.05;;
22435;SDS011;11385;50.822;4.324;2023-04-03T00:45:48;8.58;;;5.60;;
22435;SDS011;11385;50.822;4.324;2023-04-03T00:48:18;10.35;;;5.08;;
22435;SDS011;11385;50.822;4.324;2023-04-03T00:50:48;7.78;;;5.17;;
22435;SDS011;11385;50.822;4.324;2023-04-03T00:53:18;12.03;;;5.35;;
22435;SDS011;11385;50.822;4.324;2023-04-03T00:55:47;9.68;;;5.42;;
22435;SDS011;11385;50.822;4.324;2023-04-03T00:58:15;9.60;;;5.40;;
22435;SDS011;11385;50.822;4.324;2023-04-03T01:00:46;8.35;;;5.37;;
22435;SDS011;11385;50.822;4.324;2023-04-03T01:03:16;9.65;;;5.08;;
22435;SDS011;11385;50.822;4.324;2023-04-03T01:05:42;6.90;;;4.87;;
22435;SDS011;11385;50.822;4.324;2023-04-03T01:08:09;10.25;;;5.28;;
22435;SDS011;11385;50.822;4.324;2023-04-03T01:10:36;7.25;;;4.60;;
22435;SDS011;11385;50.822;4.324;2023-04-03T01:13:07;8.88;;;4.60;;
22435;SDS011;11385;50.822;4.324;2023-04-03T01:15:38;9.10;;;4.97;;
22435;SDS011;11385;50.822;4.324;2023-04-03T01:18:05;9.55;;;5.28;;
22435;SDS011;11385;50.822;4.324;2023-04-03T01:20:40;7.33;;;4.92;;
22435;SDS011;11385;50.822;4.324;2023-04-03T01:23:16;9.70;;;5.37;;
22435;SDS011;11385;50.822;4.324;2023-04-03T01:25:47;7.65;;;4.67;;
22435;SDS011;11385;50.822;4.324;2023-04-03T01:28:17;9.00;;;5.10;;
22435;SDS011;11385;50.822;4.324;2023-04-03T01:30:50;9.13;;;5.28;;
22435;SDS011;11385;50.822;4.324;2023-04-03T01:33:21;9.55;;;5.40;;
22435;SDS011;11385;50.822;4.324;2023-04-03T01:35:47;11.03;;;4.90;;
22435;SDS011;11385;50.822;4.324;2023-04-03T01:38:14;8.33;;;4.97;;
22435;SDS011;11385;50.822;4.324;2023-04-03T01:40:41;8.58;;;5.25;;
22435;SDS011;11385;50.822;4.324;2023-04-03T01:43:08;10.35;;;5.53;;
22435;SDS011;11385;50.822;4.324;2023-04-03T01:45:35;7.50;;;5.20;;
22435;SDS011;11385;50.822;4.324;2023-04-03T01:48:02;9.35;;;5.62;;
22435;SDS011;11385;50.822;4.324;2023-04-03T01:50:30;12.50;;;5.65;;
22435;SDS011;11385;50.822;4.324;2023-04-03T01:52:57;9.53;;;5.65;;
22435;SDS011;11385;50.822;4.324;2023-04-03T01:55:23;9.18;;;5.50;;
22435;SDS011;11385;50.822;4.324;2023-04-03T01:57:50;8.38;;;5.20;;
22435;SDS011;11385;50.822;4.324;2023-04-03T02:00:17;8.28;;;5.35;;
22435;SDS011;11385;50.822;4.324;2023-04-03T02:02:43;8.90;;;5.37;;
22435;SDS011;11385;50.822;4.324;2023-04-03T02:05:10;9.08;;;5.22;;
22435;SDS011;11385;50.822;4.324;2023-04-03T02:07:37;10.65;;;5.72;;
22435;SDS011;11385;50.822;4.324;2023-04-03T02:10:04;8.88;;;5.70;;
22435;SDS011;11385;50.822;4.324;2023-04-03T02:12:31;9.50;;;5.65;;
22435;SDS011;11385;50.822;4.324;2023-04-03T02:14:57;8.83;;;5.87;;
22435;SDS011;11385;50.822;4.324;2023-04-03T02:17:24;7.08;;;5.17;;
22435;SDS011;11385;50.822;4.324;2023-04-03T02:19:51;9.25;;;5.33;;
22435;SDS011;11385;50.822;4.324;2023-04-03T02:22:17;7.85;;;5.20;;
22435;SDS011;11385;50.822;4.324;2023-04-03T02:24:44;6.72;;;5.05;;
22435;SDS011;11385;50.822;4.324;2023-04-03T02:27:11;9.28;;;5.92;;
22435;SDS011;11385;50.822;4.324;2023-04-03T02:29:38;8.63;;;5.33;;
22435;SDS011;11385;50.822;4.324;2023-04-03T02:32:04;9.15;;;5.50;;
22435;SDS011;11385;50.822;4.324;2023-04-03T02:34:31;7.78;;;5.30;;
22435;SDS011;11385;50.822;4.324;2023-04-03T02:36:58;8.33;;;5.30;;
22435;SDS011;11385;50.822;4.324;2023-04-03T02:39:25;11.40;;;6.60;;
22435;SDS011;11385;50.822;4.324;2023-04-03T02:41:51;12.15;;;6.62;;
22435;SDS011;11385;50.822;4.324;2023-04-03T02:44:18;8.95;;;5.90;;
22435;SDS011;11385;50.822;4.324;2023-04-03T02:46:45;11.68;;;6.97;;
22435;SDS011;11385;50.822;4.324;2023-04-03T02:49:12;10.50;;;6.22;;
22435;SDS011;11385;50.822;4.324;2023-04-03T02:51:38;8.43;;;5.58;;
22435;SDS011;11385;50.822;4.324;2023-04-03T02:54:05;10.95;;;6.37;;
22435;SDS011;11385;50.822;4.324;2023-04-03T02:56:32;11.35;;;5.83;;
22435;SDS011;11385;50.822;4.324;2023-04-03T02:58:58;9.05;;;5.30;;
22435;SDS011;11385;50.822;4.324;2023-04-03T03:01:25;8.50;;;5.47;;
22435;SDS011;11385;50.822;4.324;2023-04-03T03:03:54;9.18;;;5.95;;
22435;SDS011;11385;50.822;4.324;2023-04-03T03:06:21;9.03;;;6.33;;
22435;SDS011;11385;50.822;4.324;2023-04-03T03:08:47;10.20;;;5.87;;
22435;SDS011;11385;50.822;4.324;2023-04-03T03:11:14;8.95;;;5.95;;
22435;SDS011;11385;50.822;4.324;2023-04-03T03:13:41;9.28;;;5.90;;
22435;SDS011;11385;50.822;4.324;2023-04-03T03:16:07;10.23;;;5.40;;
22435;SDS011;11385;50.822;4.324;2023-04-03T03:18:35;8.25;;;5.05;;
22435;SDS011;11385;50.822;4.324;2023-04-03T03:21:02;10.55;;;5.78;;
22435;SDS011;11385;50.822;4.324;2023-04-03T03:23:30;8.28;;;5.78;;
22435;SDS011;11385;50.822;4.324;2023-04-03T03:25:59;11.28;;;5.78;;
22435;SDS011;11385;50.822;4.324;2023-04-03T03:28:28;10.23;;;5.62;;
22435;SDS011;11385;50.822;4.324;2023-04-03T03:30:56;9.58;;;5.55;;
22435;SDS011;11385;50.822;4.324;2023-04-03T03:33:24;8.43;;;5.53;;
22435;SDS011;11385;50.822;4.324;2023-04-03T03:35:53;8.98;;;5.50;;
22435;SDS011;11385;50.822;4.324;2023-04-03T03:38:21;7.90;;;5.65;;
22435;SDS011;11385;50.822;4.324;2023-04-03T03:40:49;7.45;;;5.67;;
22435;SDS011;11385;50.822;4.324;2023-04-03T03:43:17;8.73;;;5.30;;
22435;SDS011;11385;50.822;4.324;2023-04-03T03:45:44;11.80;;;5.80;;
22435;SDS011;11385;50.822;4.324;2023-04-03T03:48:13;7.50;;;5.28;;
22435;SDS011;11385;50.822;4.324;2023-04-03T03:50:40;10.88;;;5.87;;
22435;SDS011;11385;50.822;4.324;2023-04-03T03:53:07;11.35;;;6.35;;
22435;SDS011;11385;50.822;4.324;2023-04-03T03:55:33;8.68;;;5.92;;
22435;SDS011;11385;50.822;4.324;2023-04-03T03:58:00;9.18;;;6.05;;
22435;SDS011;11385;50.822;4.324;2023-04-03T04:00:27;9.63;;;5.90;;
22435;SDS011;11385;50.822;4.324;2023-04-03T04:02:54;9.33;;;6.80;;
22435;SDS011;11385;50.822;4.324;2023-04-03T04:05:21;9.03;;;6.37;;
22435;SDS011;11385;50.822;4.324;2023-04-03T04:07:48;8.63;;;6.22;;
22435;SDS011;11385;50.822;4.324;2023-04-03T04:10:16;9.60;;;6.03;;
22435;SDS011;11385;50.822;4.324;2023-04-03T04:12:43;9.13;;;6.87;;
22435;SDS011;11385;50.822;4.324;2023-04-03T04:15:09;9.95;;;6.55;;
22435;SDS011;11385;50.822;4.324;2023-04-03T04:17:36;11.05;;;6.92;;
22435;SDS011;11385;50.822;4.324;2023-04-03T04:20:03;7.67;;;6.12;;
22435;SDS011;11385;50.822;4.324;2023-04-03T04:22:30;11.18;;;7.35;;
22435;SDS011;11385;50.822;4.324;2023-04-03T04:24:57;13.53;;;6.62;;
22435;SDS011;11385;50.822;4.324;2023-04-03T04:27:23;11.55;;;6.65;;
22435;SDS011;11385;50.822;4.324;2023-04-03T04:29:50;9.00;;;6.37;;
22435;SDS011;11385;50.822;4.324;2023-04-03T04:32:17;12.37;;;7.15;;
22435;SDS011;11385;50.822;4.324;2023-04-03T04:34:43;9.93;;;6.83;;
22435;SDS011;11385;50.822;4.324;2023-04-03T04:37:10;10.65;;;6.72;;
22435;SDS011;11385;50.822;4.324;2023-04-03T04:39:37;12.47;;;7.28;;
22435;SDS011;11385;50.822;4.324;2023-04-03T04:42:03;13.15;;;7.40;;
22435;SDS011;11385;50.822;4.324;2023-04-03T04:44:32;13.70;;;7.58;;
22435;SDS011;11385;50.822;4.324;2023-04-03T04:46:59;13.03;;;7.72;;
22435;SDS011;11385;50.822;4.324;2023-04-03T04:49:26;11.35;;;7.00;;
22435;SDS011;11385;50.822;4.324;2023-04-03T04:51:52;10.23;;;7.00;;
22435;SDS011;11385;50.822;4.324;2023-04-03T04:54:19;9.28;;;7.03;;
22435;SDS011;11385;50.822;4.324;2023-04-03T04:56:46;10.30;;;7.08;;
22435;SDS011;11385;50.822;4.324;2023-04-03T04:59:12;11.03;;;7.12;;
22435;SDS011;11385;50.822;4.324;2023-04-03T05:01:39;10.32;;;7.42;;
22435;SDS011;11385;50.822;4.324;2023-04-03T05:04:06;10.53;;;7.55;;
22435;SDS011;11385;50.822;4.324;2023-04-03T05:06:34;11.75;;;7.20;;
22435;SDS011;11385;50.822;4.324;2023-04-03T05:09:01;8.75;;;6.70;;
22435;SDS011;11385;50.822;4.324;2023-04-03T05:11:28;12.47;;;7.78;;
22435;SDS011;11385;50.822;4.324;2023-04-03T05:13:54;13.15;;;7.85;;
22435;SDS011;11385;50.822;4.324;2023-04-03T05:16:21;11.68;;;7.92;;
22435;SDS011;11385;50.822;4.324;2023-04-03T05:18:48;13.10;;;7.80;;
22435;SDS011;11385;50.822;4.324;2023-04-03T05:21:15;17.07;;;8.70;;
22435;SDS011;11385;50.822;4.324;2023-04-03T05:23:43;11.43;;;8.15;;
22435;SDS011;11385;50.822;4.324;2023-04-03T05:26:10;15.38;;;8.33;;
22435;SDS011;11385;50.822;4.324;2023-04-03T05:28:37;13.20;;;7.70;;
22435;SDS011;11385;50.822;4.324;2023-04-03T05:31:03;12.60;;;8.00;;
22435;SDS011;11385;50.822;4.324;2023-04-03T05:33:30;12.35;;;8.05;;
22435;SDS011;11385;50.822;4.324;2023-04-03T05:36:01;12.05;;;7.05;;
22435;SDS011;11385;50.822;4.324;2023-04-03T05:38:29;12.05;;;7.90;;
22435;SDS011;11385;50.822;4.324;2023-04-03T05:40:57;13.15;;;8.55;;
22435;SDS011;11385;50.822;4.324;2023-04-03T05:43:24;13.18;;;7.87;;
22435;SDS011;11385;50.822;4.324;2023-04-03T05:45:51;12.15;;;8.68;;
22435;SDS011;11385;50.822;4.324;2023-04-03T05:48:18;9.45;;;8.00;;
22435;SDS011;11385;50.822;4.324;2023-04-03T05:50:45;15.78;;;8.03;;
22435;SDS011;11385;50.822;4.324;2023-04-03T05:53:15;15.00;;;8.83;;
22435;SDS011;11385;50.822;4.324;2023-04-03T05:55:43;16.30;;;9.08;;
22435;SDS011;11385;50.822;4.324;2023-04-03T05:58:10;10.03;;;8.40;;
22435;SDS011;11385;50.822;4.324;2023-04-03T06:00:37;14.95;;;9.05;;
22435;SDS011;11385;50.822;4.324;2023-04-03T06:03:04;12.33;;;8.60;;
22435;SDS011;11385;50.822;4.324;2023-04-03T06:05:31;12.60;;;8.70;;
22435;SDS011;11385;50.822;4.324;2023-04-03T06:07:59;15.70;;;9.43;;
22435;SDS011;11385;50.822;4.324;2023-04-03T06:10:25;12.37;;;9.38;;
22435;SDS011;11385;50.822;4.324;2023-04-03T06:12:52;15.48;;;9.23;;
22435;SDS011;11385;50.822;4.324;2023-04-03T06:15:19;13.25;;;8.60;;
22435;SDS011;11385;50.822;4.324;2023-04-03T06:17:47;16.37;;;9.35;;
22435;SDS011;11385;50.822;4.324;2023-04-03T06:20:14;13.75;;;8.70;;
22435;SDS011;11385;50.822;4.324;2023-04-03T06:22:41;14.55;;;10.38;;
22435;SDS011;11385;50.822;4.324;2023-04-03T06:25:08;13.48;;;9.45;;
22435;SDS011;11385;50.822;4.324;2023-04-03T06:27:35;13.78;;;9.93;;
22435;SDS011;11385;50.822;4.324;2023-04-03T06:30:02;13.55;;;8.83;;
22435;SDS011;11385;50.822;4.324;2023-04-03T06:32:29;15.75;;;8.95;;
22435;SDS011;11385;50.822;4.324;2023-04-03T06:34:56;14.05;;;10.15;;
22435;SDS011;11385;50.822;4.324;2023-04-03T06:37:24;15.85;;;9.43;;
22435;SDS011;11385;50.822;4.324;2023-04-03T06:39:54;12.90;;;9.30;;
22435;SDS011;11385;50.822;4.324;2023-04-03T06:42:21;13.00;;;9.30;;
22435;SDS011;11385;50.822;4.324;2023-04-03T06:44:48;12.15;;;9.03;;
22435;SDS011;11385;50.822;4.324;2023-04-03T06:47:16;16.77;;;9.33;;
22435;SDS011;11385;50.822;4.324;2023-04-03T06:49:43;13.00;;;9.78;;
22435;SDS011;11385;50.822;4.324;2023-04-03T06:52:10;12.05;;;8.88;;
22435;SDS011;11385;50.822;4.324;2023-04-03T06:54:37;13.32;;;8.83;;
22435;SDS011;11385;50.822;4.324;2023-04-03T06:57:05;13.00;;;9.48;;
22435;SDS011;11385;50.822;4.324;2023-04-03T06:59:32;11.90;;;9.20;;
22435;SDS011;11385;50.822;4.324;2023-04-03T07:01:59;13.88;;;9.98;;
22435;SDS011;11385;50.822;4.324;2023-04-03T07:04:26;14.68;;;9.25;;
22435;SDS011;11385;50.822;4.324;2023-04-03T07:06:53;12.88;;;9.68;;
22435;SDS011;11385;50.822;4.324;2023-04-03T07:09:20;14.95;;;9.60;;
22435;SDS011;11385;50.822;4.324;2023-04-03T07:11:47;14.40;;;9.83;;
22435;SDS011;11385;50.822;4.324;2023-04-03T07:14:13;14.68;;;9.68;;
22435;SDS011;11385;50.822;4.324;2023-04-03T07:16:40;13.43;;;9.43;;
22435;SDS011;11385;50.822;4.324;2023-04-03T07:19:08;12.98;;;9.90;;
22435;SDS011;11385;50.822;4.324;2023-04-03T07:21:35;13.75;;;9.43;;
22435;SDS011;11385;50.822;4.324;2023-04-03T07:24:03;12.75;;;9.40;;
22435;SDS011;11385;50.822;4.324;2023-04-03T07:26:30;16.25;;;9.03;;
22435;SDS011;11385;50.822;4.324;2023-04-03T07:28:57;18.02;;;9.65;;
22435;SDS011;11385;50.822;4.324;2023-04-03T07:31:24;13.65;;;8.90;;
22435;SDS011;11385;50.822;4.324;2023-04-03T07:33:52;10.43;;;9.20;;
22435;SDS011;11385;50.822;4.324;2023-04-03T07:36:20;15.58;;;9.50;;
22435;SDS011;11385;50.822;4.324;2023-04-03T07:38:48;18.32;;;9.23;;
22435;SDS011;11385;50.822;4.324;2023-04-03T07:41:16;14.93;;;9.65;;
22435;SDS011;11385;50.822;4.324;2023-04-03T07:43:45;17.02;;;9.05;;
22435;SDS011;11385;50.822;4.324;2023-04-03T07:46:12;14.10;;;9.55;;
22435;SDS011;11385;50.822;4.324;2023-04-03T07:48:39;15.60;;;9.23;;
22435;SDS011;11385;50.822;4.324;2023-04-03T07:51:05;12.90;;;9.33;;
22435;SDS011;11385;50.822;4.324;2023-04-03T07:53:32;13.13;;;9.00;;
22435;SDS011;11385;50.822;4.324;2023-04-03T07:55:59;13.58;;;9.73;;
22435;SDS011;11385;50.822;4.324;2023-04-03T07:58:28;11.53;;;8.93;;
22435;SDS011;11385;50.822;4.324;2023-04-03T08:00:55;12.25;;;8.63;;
22435;SDS011;11385;50.822;4.324;2023-04-03T08:03:22;14.50;;;8.33;;
22435;SDS011;11385;50.822;4.324;2023-04-03T08:05:49;14.15;;;8.10;;
22435;SDS011;11385;50.822;4.324;2023-04-03T08:08:17;12.28;;;8.43;;
22435;SDS011;11385;50.822;4.324;2023-04-03T08:10:48;12.13;;;8.15;;
22435;SDS011;11385;50.822;4.324;2023-04-03T08:13:16;10.53;;;7.58;;
22435;SDS011;11385;50.822;4.324;2023-04-03T08:15:43;13.70;;;8.03;;
22435;SDS011;11385;50.822;4.324;2023-04-03T08:18:12;12.70;;;7.95;;
22435;SDS011;11385;50.822;4.324;2023-04-03T08:20:40;11.57;;;7.83;;
22435;SDS011;11385;50.822;4.324;2023-04-03T08:23:07;11.30;;;7.53;;
22435;SDS011;11385;50.822;4.324;2023-04-03T08:25:38;15.05;;;7.97;;
22435;SDS011;11385;50.822;4.324;2023-04-03T08:28:06;11.95;;;7.40;;
22435;SDS011;11385;50.822;4.324;2023-04-03T08:30:32;11.53;;;6.87;;
22435;SDS011;11385;50.822;4.324;2023-04-03T08:33:00;11.43;;;6.55;;
22435;SDS011;11385;50.822;4.324;2023-04-03T08:35:28;13.00;;;6.97;;
22435;SDS011;11385;50.822;4.324;2023-04-03T08:37:55;13.00;;;7.25;;
22435;SDS011;11385;50.822;4.324;2023-04-03T08:40:22;8.30;;;6.83;;
22435;SDS011;11385;50.822;4.324;2023-04-03T08:42:52;12.23;;;7.67;;
22435;SDS011;11385;50.822;4.324;2023-04-03T08:48:06;8.95;;;6.58;;
22435;SDS011;11385;50.822;4.324;2023-04-03T08:50:38;9.38;;;6.72;;
22435;SDS011;11385;50.822;4.324;2023-04-03T08:53:12;9.30;;;6.30;;
22435;SDS011;11385;50.822;4.324;2023-04-03T08:55:43;8.83;;;5.92;;
22435;SDS011;11385;50.822;4.324;2023-04-03T08:58:19;11.45;;;6.33;;
22435;SDS011;11385;50.822;4.324;2023-04-03T09:00:49;12.75;;;6.62;;
22435;SDS011;11385;50.822;4.324;2023-04-03T09:03:20;9.78;;;5.62;;
22435;SDS011;11385;50.822;4.324;2023-04-03T09:05:51;10.63;;;6.03;;
22435;SDS011;11385;50.822;4.324;2023-04-03T09:08:27;9.55;;;5.35;;
22435;SDS011;11385;50.822;4.324;2023-04-03T09:11:04;7.75;;;4.90;;
22435;SDS011;11385;50.822;4.324;2023-04-03T09:13:43;12.93;;;4.87;;
22435;SDS011;11385;50.822;4.324;2023-04-03T09:16:20;8.80;;;4.80;;
22435;SDS011;11385;50.822;4.324;2023-04-03T09:19:11;8.50;;;4.55;;
22435;SDS011;11385;50.822;4.324;2023-04-03T09:21:38;8.40;;;4.75;;
22435;SDS011;11385;50.822;4.324;2023-04-03T09:24:09;6.90;;;4.30;;
22435;SDS011;11385;50.822;4.324;2023-04-03T09:26:44;8.95;;;4.45;;
22435;SDS011;11385;50.822;4.324;2023-04-03T09:29:17;14.10;;;4.25;;
22435;SDS011;11385;50.822;4.324;2023-04-03T09:31:46;7.80;;;4.08;;
22435;SDS011;11385;50.822;4.324;2023-04-03T09:34:18;7.08;;;3.67;;
22435;SDS011;11385;50.822;4.324;2023-04-03T09:36:51;9.90;;;3.60;;
22435;SDS011;11385;50.822;4.324;2023-04-03T09:39:21;6.22;;;3.25;;
22435;SDS011;11385;50.822;4.324;2023-04-03T09:41:57;6.87;;;3.08;;
22435;SDS011;11385;50.822;4.324;2023-04-03T09:44:29;8.03;;;3.52;;
22435;SDS011;11385;50.822;4.324;2023-04-03T09:46:59;8.98;;;3.08;;
22435;SDS011;11385;50.822;4.324;2023-04-03T09:49:27;8.60;;;3.00;;
22435;SDS011;11385;50.822;4.324;2023-04-03T09:51:54;10.45;;;3.17;;
22435;SDS011;11385;50.822;4.324;2023-04-03T09:54:32;8.63;;;3.35;;
22435;SDS011;11385;50.822;4.324;2023-04-03T09:57:06;15.15;;;3.20;;
22435;SDS011;11385;50.822;4.324;2023-04-03T09:59:34;7.37;;;3.00;;
22435;SDS011;11385;50.822;4.324;2023-04-03T10:02:23;4.67;;;2.17;;
22435;SDS011;11385;50.822;4.324;2023-04-03T10:04:56;9.08;;;2.92;;
22435;SDS011;11385;50.822;4.324;2023-04-03T10:07:27;7.37;;;2.83;;
22435;SDS011;11385;50.822;4.324;2023-04-03T10:10:00;5.97;;;2.70;;
22435;SDS011;11385;50.822;4.324;2023-04-03T10:14:56;5.80;;;2.52;;
22435;SDS011;11385;50.822;4.324;2023-04-03T10:17:31;6.35;;;2.58;;
22435;SDS011;11385;50.822;4.324;2023-04-03T10:20:05;5.37;;;2.40;;
22435;SDS011;11385;50.822;4.324;2023-04-03T10:25:14;7.72;;;2.62;;
22435;SDS011;11385;50.822;4.324;2023-04-03T10:27:53;4.67;;;2.20;;
22435;SDS011;11385;50.822;4.324;2023-04-03T10:30:28;9.10;;;2.60;;
22435;SDS011;11385;50.822;4.324;2023-04-03T10:32:58;6.65;;;2.65;;
22435;SDS011;11385;50.822;4.324;2023-04-03T10:35:48;6.37;;;2.70;;
22435;SDS011;11385;50.822;4.324;2023-04-03T10:38:19;4.03;;;2.37;;
22435;SDS011;11385;50.822;4.324;2023-04-03T10:41:04;7.80;;;2.47;;
22435;SDS011;11385;50.822;4.324;2023-04-03T10:43:33;3.20;;;1.95;;
22435;SDS011;11385;50.822;4.324;2023-04-03T10:46:13;6.70;;;2.15;;
22435;SDS011;11385;50.822;4.324;2023-04-03T10:48:52;5.62;;;2.00;;
22435;SDS011;11385;50.822;4.324;2023-04-03T10:51:28;6.25;;;2.45;;
22435;SDS011;11385;50.822;4.324;2023-04-03T10:54:00;5.08;;;1.77;;
22435;SDS011;11385;50.822;4.324;2023-04-03T10:56:42;7.03;;;2.27;;
22435;SDS011;11385;50.822;4.324;2023-04-03T10:59:16;5.10;;;2.17;;
22435;SDS011;11385;50.822;4.324;2023-04-03T11:01:50;7.62;;;2.02;;
22435;SDS011;11385;50.822;4.324;2023-04-03T11:04:36;6.83;;;2.50;;
22435;SDS011;11385;50.822;4.324;2023-04-03T11:07:10;7.47;;;1.95;;
22435;SDS011;11385;50.822;4.324;2023-04-03T11:09:49;4.72;;;1.92;;
22435;SDS011;11385;50.822;4.324;2023-04-03T11:12:21;4.87;;;2.10;;
22435;SDS011;11385;50.822;4.324;2023-04-03T11:14:52;4.17;;;1.82;;
22435;SDS011;11385;50.822;4.324;2023-04-03T11:17:26;5.47;;;1.85;;
22435;SDS011;11385;50.822;4.324;2023-04-03T11:22:39;4.28;;;1.52;;
22435;SDS011;11385;50.822;4.324;2023-04-03T11:25:18;6.37;;;2.10;;
22435;SDS011;11385;50.822;4.324;2023-04-03T11:36:19;4.97;;;1.82;;
22435;SDS011;11385;50.822;4.324;2023-04-03T11:38:51;4.75;;;1.72;;
22435;SDS011;11385;50.822;4.324;2023-04-03T11:41:25;4.78;;;1.65;;
22435;SDS011;11385;50.822;4.324;2023-04-03T11:43:58;5.60;;;1.75;;
22435;SDS011;11385;50.822;4.324;2023-04-03T11:49:08;5.47;;;2.27;;
22435;SDS011;11385;50.822;4.324;2023-04-03T11:51:40;5.25;;;2.05;;
22435;SDS011;11385;50.822;4.324;2023-04-03T11:54:34;5.58;;;1.98;;
22435;SDS011;11385;50.822;4.324;2023-04-03T11:56:44;5.90;;;1.77;;
22435;SDS011;11385;50.822;4.324;2023-04-03T11:59:15;4.55;;;1.70;;
22435;SDS011;11385;50.822;4.324;2023-04-03T12:01:46;6.33;;;2.00;;
22435;SDS011;11385;50.822;4.324;2023-04-03T12:04:15;4.08;;;1.70;;
22435;SDS011;11385;50.822;4.324;2023-04-03T12:06:53;4.58;;;1.75;;
22435;SDS011;11385;50.822;4.324;2023-04-03T12:09:28;5.80;;;1.98;;
22435;SDS011;11385;50.822;4.324;2023-04-03T12:14:50;4.78;;;1.65;;
22435;SDS011;11385;50.822;4.324;2023-04-03T12:17:25;4.58;;;2.10;;
22435;SDS011;11385;50.822;4.324;2023-04-03T12:19:54;6.05;;;1.60;;
22435;SDS011;11385;50.822;4.324;2023-04-03T12:22:22;3.87;;;1.47;;
22435;SDS011;11385;50.822;4.324;2023-04-03T12:24:50;3.60;;;1.55;;
22435;SDS011;11385;50.822;4.324;2023-04-03T12:27:27;5.03;;;2.17;;
22435;SDS011;11385;50.822;4.324;2023-04-03T12:30:19;4.20;;;1.65;;
22435;SDS011;11385;50.822;4.324;2023-04-03T12:35:37;4.83;;;1.87;;
22435;SDS011;11385;50.822;4.324;2023-04-03T12:41:08;4.12;;;1.55;;
22435;SDS011;11385;50.822;4.324;2023-04-03T12:43:43;4.95;;;1.57;;
22435;SDS011;11385;50.822;4.324;2023-04-03T12:46:19;4.80;;;1.57;;
22435;SDS011;11385;50.822;4.324;2023-04-03T12:48:49;3.17;;;1.32;;
22435;SDS011;11385;50.822;4.324;2023-04-03T12:51:22;7.90;;;1.50;;
22435;SDS011;11385;50.822;4.324;2023-04-03T12:53:58;5.50;;;1.70;;
22435;SDS011;11385;50.822;4.324;2023-04-03T12:56:30;3.75;;;1.20;;
22435;SDS011;11385;50.822;4.324;2023-04-03T13:01:42;6.08;;;1.60;;
22435;SDS011;11385;50.822;4.324;2023-04-03T13:04:10;4.47;;;1.27;;
22435;SDS011;11385;50.822;4.324;2023-04-03T13:06:39;3.37;;;1.30;;
22435;SDS011;11385;50.822;4.324;2023-04-03T13:09:18;10.32;;;1.40;;
22435;SDS011;11385;50.822;4.324;2023-04-03T13:11:42;5.75;;;1.82;;
22435;SDS011;11385;50.822;4.324;2023-04-03T13:14:16;4.28;;;1.32;;
22435;SDS011;11385;50.822;4.324;2023-04-03T13:19:22;4.30;;;1.40;;
22435;SDS011;11385;50.822;4.324;2023-04-03T13:21:56;4.45;;;1.47;;
22435;SDS011;11385;50.822;4.324;2023-04-03T13:24:23;3.08;;;1.72;;
22435;SDS011;11385;50.822;4.324;2023-04-03T13:26:50;3.77;;;1.60;;
22435;SDS011;11385;50.822;4.324;2023-04-03T13:29:24;5.95;;;2.25;;
22435;SDS011;11385;50.822;4.324;2023-04-03T13:31:56;3.10;;;1.30;;
22435;SDS011;11385;50.822;4.324;2023-04-03T13:34:25;5.75;;;2.10;;
22435;SDS011;11385;50.822;4.324;2023-04-03T13:36:56;3.62;;;1.70;;
22435;SDS011;11385;50.822;4.324;2023-04-03T13:41:53;4.85;;;1.30;;
22435;SDS011;11385;50.822;4.324;2023-04-03T13:44:26;3.52;;;1.40;;
22435;SDS011;11385;50.822;4.324;2023-04-03T13:46:58;3.42;;;1.22;;
22435;SDS011;11385;50.822;4.324;2023-04-03T13:49:39;3.15;;;1.60;;
22435;SDS011;11385;50.822;4.324;2023-04-03T13:54:45;3.35;;;1.47;;
22435;SDS011;11385;50.822;4.324;2023-04-03T13:57:14;6.65;;;2.10;;
22435;SDS011;11385;50.822;4.324;2023-04-03T13:59:42;4.62;;;1.60;;
22435;SDS011;11385;50.822;4.324;2023-04-03T14:02:12;4.70;;;1.52;;
22435;SDS011;11385;50.822;4.324;2023-04-03T14:04:49;6.60;;;1.70;;
22435;SDS011;11385;50.822;4.324;2023-04-03T14:07:21;4.50;;;1.45;;
22435;SDS011;11385;50.822;4.324;2023-04-03T14:09:49;3.62;;;1.45;;
22435;SDS011;11385;50.822;4.324;2023-04-03T14:14:53;6.22;;;1.60;;
22435;SDS011;11385;50.822;4.324;2023-04-03T14:17:22;4.22;;;1.50;;
22435;SDS011;11385;50.822;4.324;2023-04-03T14:19:52;2.67;;;1.30;;
22435;SDS011;11385;50.822;4.324;2023-04-03T14:22:22;4.95;;;1.85;;
22435;SDS011;11385;50.822;4.324;2023-04-03T14:24:54;7.30;;;1.87;;
22435;SDS011;11385;50.822;4.324;2023-04-03T14:27:23;5.35;;;2.00;;
22435;SDS011;11385;50.822;4.324;2023-04-03T14:29:54;4.15;;;1.50;;
22435;SDS011;11385;50.822;4.324;2023-04-03T14:32:23;6.12;;;1.98;;
22435;SDS011;11385;50.822;4.324;2023-04-03T14:34:50;4.65;;;1.60;;
22435;SDS011;11385;50.822;4.324;2023-04-03T14:37:20;4.10;;;1.37;;
22435;SDS011;11385;50.822;4.324;2023-04-03T14:39:49;4.85;;;1.77;;
22435;SDS011;11385;50.822;4.324;2023-04-03T14:42:18;5.70;;;1.40;;
22435;SDS011;11385;50.822;4.324;2023-04-03T14:44:47;5.30;;;1.83;;
22435;SDS011;11385;50.822;4.324;2023-04-03T14:47:18;4.15;;;1.20;;
22435;SDS011;11385;50.822;4.324;2023-04-03T14:49:47;4.35;;;1.67;;
22435;SDS011;11385;50.822;4.324;2023-04-03T14:52:19;4.37;;;1.52;;
22435;SDS011;11385;50.822;4.324;2023-04-03T14:54:47;2.92;;;1.22;;
22435;SDS011;11385;50.822;4.324;2023-04-03T14:57:15;5.10;;;1.60;;
22435;SDS011;11385;50.822;4.324;2023-04-03T14:59:44;3.42;;;1.50;;
22435;SDS011;11385;50.822;4.324;2023-04-03T15:02:24;4.22;;;1.70;;
22435;SDS011;11385;50.822;4.324;2023-04-03T15:04:57;4.22;;;1.90;;
22435;SDS011;11385;50.822;4.324;2023-04-03T15:07:26;4.03;;;1.57;;
22435;SDS011;11385;50.822;4.324;2023-04-03T15:09:55;3.77;;;1.40;;
22435;SDS011;11385;50.822;4.324;2023-04-03T15:12:22;3.75;;;1.50;;
22435;SDS011;11385;50.822;4.324;2023-04-03T15:14:49;2.30;;;1.07;;
22435;SDS011;11385;50.822;4.324;2023-04-03T15:17:17;3.90;;;1.47;;
22435;SDS011;11385;50.822;4.324;2023-04-03T15:19:47;3.60;;;1.32;;
22435;SDS011;11385;50.822;4.324;2023-04-03T15:22:15;9.03;;;1.45;;
22435;SDS011;11385;50.822;4.324;2023-04-03T15:24:43;5.33;;;1.55;;
22435;SDS011;11385;50.822;4.324;2023-04-03T15:27:11;3.08;;;1.40;;
22435;SDS011;11385;50.822;4.324;2023-04-03T15:29:39;3.60;;;1.45;;
22435;SDS011;11385;50.822;4.324;2023-04-03T15:32:07;2.12;;;1.20;;
22435;SDS011;11385;50.822;4.324;2023-04-03T15:35:08;3.20;;;1.35;;
22435;SDS011;11385;50.822;4.324;2023-04-03T15:37:34;4.00;;;1.77;;
22435;SDS011;11385;50.822;4.324;2023-04-03T15:40:01;2.67;;;1.40;;